sensor_id;sensor_type;location;lat;lon;timestamp;P1;durP1;ratioP1;P2;durP2;ratioP2
48733;SDS011;34530;52.084;5.146;2022-12-07T00:01:19;3.10;;;1.98;;
48733;SDS011;34530;52.084;5.146;2022-12-07T00:03:47;2.85;;;1.90;;
48733;SDS011;34530;52.084;5.146;2022-12-07T00:06:14;5.40;;;2.40;;
48733;SDS011;34530;52.084;5.146;2022-12-07T00:08:41;5.00;;;1.80;;
48733;SDS011;34530;52.084;5.146;2022-12-07T00:11:08;3.75;;;2.20;;
48733;SDS011;34530;52.084;5.146;2022-12-07T00:13:34;5.32;;;2.13;;
48733;SDS011;34530;52.084;5.146;2022-12-07T00:16:01;3.60;;;1.95;;
48733;SDS011;34530;52.084;5.146;2022-12-07T00:18:32;3.30;;;1.98;;
48733;SDS011;34530;52.084;5.146;2022-12-07T00:21:04;4.03;;;1.70;;
48733;SDS011;34530;52.084;5.146;2022-12-07T00:23:35;2.25;;;1.58;;
48733;SDS011;34530;52.084;5.146;2022-12-07T00:26:04;3.22;;;1.88;;
48733;SDS011;34530;52.084;5.146;2022-12-07T00:28:35;3.20;;;1.75;;
48733;SDS011;34530;52.084;5.146;2022-12-07T00:31:09;2.10;;;1.88;;
48733;SDS011;34530;52.084;5.146;2022-12-07T00:33:36;4.28;;;2.30;;
48733;SDS011;34530;52.084;5.146;2022-12-07T00:36:04;3.30;;;1.65;;
48733;SDS011;34530;52.084;5.146;2022-12-07T00:38:32;3.33;;;2.00;;
48733;SDS011;34530;52.084;5.146;2022-12-07T00:41:00;4.32;;;1.85;;
48733;SDS011;34530;52.084;5.146;2022-12-07T00:43:28;2.97;;;1.60;;
48733;SDS011;34530;52.084;5.146;2022-12-07T00:45:54;3.97;;;1.92;;
48733;SDS011;34530;52.084;5.146;2022-12-07T00:48:20;2.70;;;1.88;;
48733;SDS011;34530;52.084;5.146;2022-12-07T00:50:47;4.55;;;2.20;;
48733;SDS011;34530;52.084;5.146;2022-12-07T00:53:12;3.90;;;2.03;;
48733;SDS011;34530;52.084;5.146;2022-12-07T00:55:38;3.30;;;2.15;;
48733;SDS011;34530;52.084;5.146;2022-12-07T00:58:04;4.13;;;2.10;;
48733;SDS011;34530;52.084;5.146;2022-12-07T01:00:30;3.65;;;2.08;;
48733;SDS011;34530;52.084;5.146;2022-12-07T01:02:56;2.25;;;1.75;;
48733;SDS011;34530;52.084;5.146;2022-12-07T01:05:21;3.53;;;2.03;;
48733;SDS011;34530;52.084;5.146;2022-12-07T01:07:47;4.13;;;1.80;;
48733;SDS011;34530;52.084;5.146;2022-12-07T01:10:13;3.65;;;2.15;;
48733;SDS011;34530;52.084;5.146;2022-12-07T01:12:39;4.72;;;1.92;;
48733;SDS011;34530;52.084;5.146;2022-12-07T01:15:05;3.92;;;2.10;;
48733;SDS011;34530;52.084;5.146;2022-12-07T01:17:32;2.95;;;1.60;;
48733;SDS011;34530;52.084;5.146;2022-12-07T01:19:58;2.65;;;1.92;;
48733;SDS011;34530;52.084;5.146;2022-12-07T01:22:24;3.58;;;2.00;;
48733;SDS011;34530;52.084;5.146;2022-12-07T01:24:49;3.45;;;1.60;;
48733;SDS011;34530;52.084;5.146;2022-12-07T01:27:15;3.22;;;2.00;;
48733;SDS011;34530;52.084;5.146;2022-12-07T01:29:41;3.00;;;1.98;;
48733;SDS011;34530;52.084;5.146;2022-12-07T01:32:07;3.25;;;1.90;;
48733;SDS011;34530;52.084;5.146;2022-12-07T01:34:32;4.07;;;1.60;;
48733;SDS011;34530;52.084;5.146;2022-12-07T01:36:58;2.10;;;1.52;;
48733;SDS011;34530;52.084;5.146;2022-12-07T01:39:24;2.42;;;1.55;;
48733;SDS011;34530;52.084;5.146;2022-12-07T01:41:49;2.45;;;1.90;;
48733;SDS011;34530;52.084;5.146;2022-12-07T01:44:23;2.42;;;1.65;;
48733;SDS011;34530;52.084;5.146;2022-12-07T01:46:54;3.53;;;1.95;;
48733;SDS011;34530;52.084;5.146;2022-12-07T01:51:54;3.78;;;1.80;;
48733;SDS011;34530;52.084;5.146;2022-12-07T01:54:29;5.65;;;1.98;;
48733;SDS011;34530;52.084;5.146;2022-12-07T01:56:57;3.45;;;1.90;;
48733;SDS011;34530;52.084;5.146;2022-12-07T01:59:24;4.07;;;1.90;;
48733;SDS011;34530;52.084;5.146;2022-12-07T02:01:51;3.35;;;1.80;;
48733;SDS011;34530;52.084;5.146;2022-12-07T02:04:17;3.22;;;1.80;;
48733;SDS011;34530;52.084;5.146;2022-12-07T02:06:43;2.00;;;1.60;;
48733;SDS011;34530;52.084;5.146;2022-12-07T02:09:10;2.63;;;1.90;;
48733;SDS011;34530;52.084;5.146;2022-12-07T02:11:37;3.72;;;1.88;;
48733;SDS011;34530;52.084;5.146;2022-12-07T02:14:03;2.15;;;1.67;;
48733;SDS011;34530;52.084;5.146;2022-12-07T02:30:49;2.80;;;1.55;;
48733;SDS011;34530;52.084;5.146;2022-12-07T02:33:24;2.60;;;1.60;;
48733;SDS011;34530;52.084;5.146;2022-12-07T02:35:55;2.53;;;1.88;;
48733;SDS011;34530;52.084;5.146;2022-12-07T02:38:31;2.72;;;1.55;;
48733;SDS011;34530;52.084;5.146;2022-12-07T02:41:06;3.03;;;1.70;;
48733;SDS011;34530;52.084;5.146;2022-12-07T02:43:54;2.78;;;1.77;;
48733;SDS011;34530;52.084;5.146;2022-12-07T02:46:27;2.38;;;1.60;;
48733;SDS011;34530;52.084;5.146;2022-12-07T02:48:55;2.85;;;1.60;;
48733;SDS011;34530;52.084;5.146;2022-12-07T02:51:24;3.17;;;1.85;;
48733;SDS011;34530;52.084;5.146;2022-12-07T02:53:50;3.63;;;1.85;;
48733;SDS011;34530;52.084;5.146;2022-12-07T03:02:00;3.28;;;1.77;;
48733;SDS011;34530;52.084;5.146;2022-12-07T03:13:05;6.22;;;2.30;;
48733;SDS011;34530;52.084;5.146;2022-12-07T03:15:34;3.50;;;1.83;;
48733;SDS011;34530;52.084;5.146;2022-12-07T03:18:28;5.75;;;2.20;;
48733;SDS011;34530;52.084;5.146;2022-12-07T03:20:57;5.65;;;2.28;;
48733;SDS011;34530;52.084;5.146;2022-12-07T03:23:29;3.85;;;2.08;;
48733;SDS011;34530;52.084;5.146;2022-12-07T03:25:59;5.43;;;1.90;;
48733;SDS011;34530;52.084;5.146;2022-12-07T03:28:26;4.07;;;1.88;;
48733;SDS011;34530;52.084;5.146;2022-12-07T03:33:41;3.60;;;1.88;;
48733;SDS011;34530;52.084;5.146;2022-12-07T03:38:51;5.65;;;1.90;;
48733;SDS011;34530;52.084;5.146;2022-12-07T03:41:27;3.05;;;1.50;;
48733;SDS011;34530;52.084;5.146;2022-12-07T03:43:56;3.83;;;1.98;;
48733;SDS011;34530;52.084;5.146;2022-12-07T03:46:42;2.75;;;1.50;;
48733;SDS011;34530;52.084;5.146;2022-12-07T03:54:53;2.78;;;1.63;;
48733;SDS011;34530;52.084;5.146;2022-12-07T03:57:33;3.00;;;2.15;;
48733;SDS011;34530;52.084;5.146;2022-12-07T04:00:00;3.22;;;1.90;;
48733;SDS011;34530;52.084;5.146;2022-12-07T04:02:30;5.07;;;1.85;;
48733;SDS011;34530;52.084;5.146;2022-12-07T04:04:57;2.92;;;1.58;;
48733;SDS011;34530;52.084;5.146;2022-12-07T04:07:24;4.63;;;1.58;;
48733;SDS011;34530;52.084;5.146;2022-12-07T04:09:49;3.83;;;1.88;;
48733;SDS011;34530;52.084;5.146;2022-12-07T04:12:15;2.47;;;1.55;;
48733;SDS011;34530;52.084;5.146;2022-12-07T04:14:41;2.92;;;1.75;;
48733;SDS011;34530;52.084;5.146;2022-12-07T04:17:06;7.22;;;2.10;;
48733;SDS011;34530;52.084;5.146;2022-12-07T04:19:33;3.67;;;1.80;;
48733;SDS011;34530;52.084;5.146;2022-12-07T04:22:00;3.25;;;1.52;;
48733;SDS011;34530;52.084;5.146;2022-12-07T04:24:27;3.47;;;1.90;;
48733;SDS011;34530;52.084;5.146;2022-12-07T04:26:52;2.58;;;1.75;;
48733;SDS011;34530;52.084;5.146;2022-12-07T04:29:18;3.75;;;1.75;;
48733;SDS011;34530;52.084;5.146;2022-12-07T04:31:44;3.03;;;1.67;;
48733;SDS011;34530;52.084;5.146;2022-12-07T04:34:11;3.10;;;1.63;;
48733;SDS011;34530;52.084;5.146;2022-12-07T04:36:37;2.38;;;1.52;;
48733;SDS011;34530;52.084;5.146;2022-12-07T04:39:03;4.63;;;1.92;;
48733;SDS011;34530;52.084;5.146;2022-12-07T04:41:30;2.78;;;1.48;;
48733;SDS011;34530;52.084;5.146;2022-12-07T04:44:00;3.25;;;1.50;;
48733;SDS011;34530;52.084;5.146;2022-12-07T04:46:29;4.00;;;1.50;;
48733;SDS011;34530;52.084;5.146;2022-12-07T04:48:56;2.75;;;1.60;;
48733;SDS011;34530;52.084;5.146;2022-12-07T04:51:23;5.47;;;1.63;;
48733;SDS011;34530;52.084;5.146;2022-12-07T04:53:51;3.08;;;1.30;;
48733;SDS011;34530;52.084;5.146;2022-12-07T04:56:17;3.33;;;1.60;;
48733;SDS011;34530;52.084;5.146;2022-12-07T04:58:44;2.83;;;1.45;;
48733;SDS011;34530;52.084;5.146;2022-12-07T05:01:11;2.33;;;1.50;;
48733;SDS011;34530;52.084;5.146;2022-12-07T05:03:37;2.22;;;1.63;;
48733;SDS011;34530;52.084;5.146;2022-12-07T05:06:03;3.15;;;1.55;;
48733;SDS011;34530;52.084;5.146;2022-12-07T05:08:29;2.40;;;1.25;;
48733;SDS011;34530;52.084;5.146;2022-12-07T05:10:55;3.05;;;1.40;;
48733;SDS011;34530;52.084;5.146;2022-12-07T05:13:21;4.28;;;1.65;;
48733;SDS011;34530;52.084;5.146;2022-12-07T05:15:47;1.65;;;1.17;;
48733;SDS011;34530;52.084;5.146;2022-12-07T05:18:13;2.45;;;1.55;;
48733;SDS011;34530;52.084;5.146;2022-12-07T05:20:39;2.03;;;1.25;;
48733;SDS011;34530;52.084;5.146;2022-12-07T05:23:05;3.20;;;1.63;;
48733;SDS011;34530;52.084;5.146;2022-12-07T05:25:31;3.55;;;1.20;;
48733;SDS011;34530;52.084;5.146;2022-12-07T05:27:57;3.78;;;1.52;;
48733;SDS011;34530;52.084;5.146;2022-12-07T05:30:23;4.28;;;1.38;;
48733;SDS011;34530;52.084;5.146;2022-12-07T05:32:49;2.60;;;1.40;;
48733;SDS011;34530;52.084;5.146;2022-12-07T05:35:15;4.15;;;1.40;;
48733;SDS011;34530;52.084;5.146;2022-12-07T05:37:41;2.58;;;1.10;;
48733;SDS011;34530;52.084;5.146;2022-12-07T05:40:07;2.42;;;1.27;;
48733;SDS011;34530;52.084;5.146;2022-12-07T05:42:33;3.45;;;1.52;;
48733;SDS011;34530;52.084;5.146;2022-12-07T05:44:59;4.68;;;1.50;;
48733;SDS011;34530;52.084;5.146;2022-12-07T05:47:24;2.60;;;1.25;;
48733;SDS011;34530;52.084;5.146;2022-12-07T05:49:50;4.07;;;1.65;;
48733;SDS011;34530;52.084;5.146;2022-12-07T05:52:15;3.38;;;1.50;;
48733;SDS011;34530;52.084;5.146;2022-12-07T05:54:43;4.60;;;1.50;;
48733;SDS011;34530;52.084;5.146;2022-12-07T05:57:09;3.15;;;1.30;;
48733;SDS011;34530;52.084;5.146;2022-12-07T05:59:35;1.77;;;0.95;;
48733;SDS011;34530;52.084;5.146;2022-12-07T06:04:29;3.25;;;1.60;;
48733;SDS011;34530;52.084;5.146;2022-12-07T06:06:57;1.73;;;1.15;;
48733;SDS011;34530;52.084;5.146;2022-12-07T06:09:23;2.80;;;1.38;;
48733;SDS011;34530;52.084;5.146;2022-12-07T06:11:50;3.90;;;1.52;;
48733;SDS011;34530;52.084;5.146;2022-12-07T06:14:34;4.05;;;1.30;;
48733;SDS011;34530;52.084;5.146;2022-12-07T06:17:00;3.95;;;1.25;;
48733;SDS011;34530;52.084;5.146;2022-12-07T06:19:25;1.63;;;1.23;;
48733;SDS011;34530;52.084;5.146;2022-12-07T06:21:51;2.10;;;1.20;;
48733;SDS011;34530;52.084;5.146;2022-12-07T06:24:17;2.03;;;1.02;;
48733;SDS011;34530;52.084;5.146;2022-12-07T06:26:43;2.40;;;1.40;;
48733;SDS011;34530;52.084;5.146;2022-12-07T06:29:10;3.25;;;1.25;;
48733;SDS011;34530;52.084;5.146;2022-12-07T06:31:36;2.47;;;1.30;;
48733;SDS011;34530;52.084;5.146;2022-12-07T06:34:04;1.50;;;1.20;;
48733;SDS011;34530;52.084;5.146;2022-12-07T06:36:31;2.80;;;1.27;;
48733;SDS011;34530;52.084;5.146;2022-12-07T06:38:57;1.63;;;1.00;;
48733;SDS011;34530;52.084;5.146;2022-12-07T06:41:23;2.88;;;1.25;;
48733;SDS011;34530;52.084;5.146;2022-12-07T06:43:49;2.50;;;1.15;;
48733;SDS011;34530;52.084;5.146;2022-12-07T06:46:15;2.05;;;1.20;;
48733;SDS011;34530;52.084;5.146;2022-12-07T06:48:41;3.08;;;1.30;;
48733;SDS011;34530;52.084;5.146;2022-12-07T06:51:08;3.22;;;1.38;;
48733;SDS011;34530;52.084;5.146;2022-12-07T06:53:34;2.28;;;1.20;;
48733;SDS011;34530;52.084;5.146;2022-12-07T06:56:00;1.92;;;1.00;;
48733;SDS011;34530;52.084;5.146;2022-12-07T06:58:26;3.22;;;1.38;;
48733;SDS011;34530;52.084;5.146;2022-12-07T07:00:51;4.95;;;1.45;;
48733;SDS011;34530;52.084;5.146;2022-12-07T07:03:17;1.52;;;1.17;;
48733;SDS011;34530;52.084;5.146;2022-12-07T07:05:43;4.25;;;1.45;;
48733;SDS011;34530;52.084;5.146;2022-12-07T07:08:10;1.90;;;1.10;;
48733;SDS011;34530;52.084;5.146;2022-12-07T07:10:36;2.00;;;1.05;;
48733;SDS011;34530;52.084;5.146;2022-12-07T07:13:02;3.00;;;1.25;;
48733;SDS011;34530;52.084;5.146;2022-12-07T07:15:29;2.03;;;1.20;;
48733;SDS011;34530;52.084;5.146;2022-12-07T07:17:55;1.27;;;0.90;;
48733;SDS011;34530;52.084;5.146;2022-12-07T07:20:21;2.08;;;1.38;;
48733;SDS011;34530;52.084;5.146;2022-12-07T07:22:47;2.03;;;0.95;;
48733;SDS011;34530;52.084;5.146;2022-12-07T07:25:13;2.30;;;1.40;;
48733;SDS011;34530;52.084;5.146;2022-12-07T07:27:39;3.67;;;1.10;;
48733;SDS011;34530;52.084;5.146;2022-12-07T07:30:05;2.35;;;1.00;;
48733;SDS011;34530;52.084;5.146;2022-12-07T07:32:31;1.65;;;1.08;;
48733;SDS011;34530;52.084;5.146;2022-12-07T07:34:57;1.83;;;0.90;;
48733;SDS011;34530;52.084;5.146;2022-12-07T07:37:22;1.55;;;1.10;;
48733;SDS011;34530;52.084;5.146;2022-12-07T07:39:48;1.77;;;1.20;;
48733;SDS011;34530;52.084;5.146;2022-12-07T07:42:14;6.45;;;1.20;;
48733;SDS011;34530;52.084;5.146;2022-12-07T07:44:40;7.50;;;2.10;;
48733;SDS011;34530;52.084;5.146;2022-12-07T07:47:06;15.75;;;2.72;;
48733;SDS011;34530;52.084;5.146;2022-12-07T07:49:31;7.05;;;2.00;;
48733;SDS011;34530;52.084;5.146;2022-12-07T07:51:57;6.00;;;1.88;;
48733;SDS011;34530;52.084;5.146;2022-12-07T07:54:23;4.97;;;2.20;;
48733;SDS011;34530;52.084;5.146;2022-12-07T07:56:48;7.13;;;1.80;;
48733;SDS011;34530;52.084;5.146;2022-12-07T07:59:14;9.07;;;1.95;;
48733;SDS011;34530;52.084;5.146;2022-12-07T08:01:40;8.82;;;2.33;;
48733;SDS011;34530;52.084;5.146;2022-12-07T08:04:06;6.70;;;2.38;;
48733;SDS011;34530;52.084;5.146;2022-12-07T08:06:31;12.38;;;2.35;;
48733;SDS011;34530;52.084;5.146;2022-12-07T08:08:57;6.07;;;2.22;;
48733;SDS011;34530;52.084;5.146;2022-12-07T08:11:23;6.80;;;2.15;;
48733;SDS011;34530;52.084;5.146;2022-12-07T08:13:49;6.35;;;1.52;;
48733;SDS011;34530;52.084;5.146;2022-12-07T08:16:15;11.93;;;2.00;;
48733;SDS011;34530;52.084;5.146;2022-12-07T08:18:41;8.13;;;1.88;;
48733;SDS011;34530;52.084;5.146;2022-12-07T08:21:09;5.45;;;1.35;;
48733;SDS011;34530;52.084;5.146;2022-12-07T08:23:37;5.50;;;2.08;;
48733;SDS011;34530;52.084;5.146;2022-12-07T08:26:07;11.20;;;2.15;;
48733;SDS011;34530;52.084;5.146;2022-12-07T08:28:34;6.85;;;1.70;;
48733;SDS011;34530;52.084;5.146;2022-12-07T08:31:03;7.85;;;1.55;;
48733;SDS011;34530;52.084;5.146;2022-12-07T08:33:31;5.90;;;2.25;;
48733;SDS011;34530;52.084;5.146;2022-12-07T08:36:04;10.57;;;1.95;;
48733;SDS011;34530;52.084;5.146;2022-12-07T08:38:31;5.50;;;1.70;;
48733;SDS011;34530;52.084;5.146;2022-12-07T08:40:58;5.88;;;1.75;;
48733;SDS011;34530;52.084;5.146;2022-12-07T08:43:24;3.58;;;1.50;;
48733;SDS011;34530;52.084;5.146;2022-12-07T08:46:07;7.32;;;1.85;;
48733;SDS011;34530;52.084;5.146;2022-12-07T08:49:04;5.65;;;1.73;;
48733;SDS011;34530;52.084;5.146;2022-12-07T08:51:39;2.60;;;1.40;;
48733;SDS011;34530;52.084;5.146;2022-12-07T08:54:07;6.13;;;1.85;;
48733;SDS011;34530;52.084;5.146;2022-12-07T08:56:36;6.38;;;1.50;;
48733;SDS011;34530;52.084;5.146;2022-12-07T08:59:02;4.60;;;1.80;;
48733;SDS011;34530;52.084;5.146;2022-12-07T09:01:28;5.07;;;1.70;;
48733;SDS011;34530;52.084;5.146;2022-12-07T09:03:54;5.45;;;1.98;;
48733;SDS011;34530;52.084;5.146;2022-12-07T09:06:20;8.70;;;2.17;;
48733;SDS011;34530;52.084;5.146;2022-12-07T09:08:46;6.15;;;1.80;;
48733;SDS011;34530;52.084;5.146;2022-12-07T09:11:15;8.20;;;2.30;;
48733;SDS011;34530;52.084;5.146;2022-12-07T09:13:40;4.55;;;1.83;;
48733;SDS011;34530;52.084;5.146;2022-12-07T09:16:06;9.63;;;2.25;;
48733;SDS011;34530;52.084;5.146;2022-12-07T09:18:31;12.35;;;3.35;;
48733;SDS011;34530;52.084;5.146;2022-12-07T09:20:57;11.25;;;2.95;;
48733;SDS011;34530;52.084;5.146;2022-12-07T09:23:23;8.18;;;2.53;;
48733;SDS011;34530;52.084;5.146;2022-12-07T09:25:49;7.65;;;2.65;;
48733;SDS011;34530;52.084;5.146;2022-12-07T09:28:14;7.70;;;2.53;;
48733;SDS011;34530;52.084;5.146;2022-12-07T09:30:46;10.40;;;2.95;;
48733;SDS011;34530;52.084;5.146;2022-12-07T09:33:13;9.27;;;3.05;;
48733;SDS011;34530;52.084;5.146;2022-12-07T09:35:46;9.90;;;3.35;;
48733;SDS011;34530;52.084;5.146;2022-12-07T09:38:12;11.55;;;3.45;;
48733;SDS011;34530;52.084;5.146;2022-12-07T09:40:38;14.18;;;3.78;;
48733;SDS011;34530;52.084;5.146;2022-12-07T09:43:05;12.63;;;4.22;;
48733;SDS011;34530;52.084;5.146;2022-12-07T09:45:36;11.52;;;3.63;;
48733;SDS011;34530;52.084;5.146;2022-12-07T09:48:03;9.68;;;3.92;;
48733;SDS011;34530;52.084;5.146;2022-12-07T09:50:29;13.57;;;4.47;;
48733;SDS011;34530;52.084;5.146;2022-12-07T09:53:09;15.65;;;3.88;;
48733;SDS011;34530;52.084;5.146;2022-12-07T09:55:41;12.13;;;3.92;;
48733;SDS011;34530;52.084;5.146;2022-12-07T09:58:10;13.63;;;3.67;;
48733;SDS011;34530;52.084;5.146;2022-12-07T10:00:45;10.23;;;3.78;;
48733;SDS011;34530;52.084;5.146;2022-12-07T10:03:11;10.70;;;2.88;;
48733;SDS011;34530;52.084;5.146;2022-12-07T10:05:42;11.07;;;3.92;;
48733;SDS011;34530;52.084;5.146;2022-12-07T10:08:13;10.52;;;3.85;;
48733;SDS011;34530;52.084;5.146;2022-12-07T10:10:40;12.18;;;3.47;;
48733;SDS011;34530;52.084;5.146;2022-12-07T10:13:07;8.90;;;3.25;;
48733;SDS011;34530;52.084;5.146;2022-12-07T10:18:13;8.32;;;3.20;;
48733;SDS011;34530;52.084;5.146;2022-12-07T10:20:45;9.05;;;3.35;;
48733;SDS011;34530;52.084;5.146;2022-12-07T10:23:16;6.65;;;2.90;;
48733;SDS011;34530;52.084;5.146;2022-12-07T10:25:43;11.73;;;3.17;;
48733;SDS011;34530;52.084;5.146;2022-12-07T10:28:11;11.43;;;3.10;;
48733;SDS011;34530;52.084;5.146;2022-12-07T10:36:24;10.23;;;3.25;;
48733;SDS011;34530;52.084;5.146;2022-12-07T10:38:53;9.00;;;2.85;;
48733;SDS011;34530;52.084;5.146;2022-12-07T10:41:26;11.30;;;3.53;;
48733;SDS011;34530;52.084;5.146;2022-12-07T10:43:53;10.63;;;3.75;;
48733;SDS011;34530;52.084;5.146;2022-12-07T10:54:12;9.43;;;3.25;;
48733;SDS011;34530;52.084;5.146;2022-12-07T10:59:32;7.05;;;2.00;;
48733;SDS011;34530;52.084;5.146;2022-12-07T11:02:24;7.15;;;2.08;;
48733;SDS011;34530;52.084;5.146;2022-12-07T11:07:50;7.82;;;2.03;;
48733;SDS011;34530;52.084;5.146;2022-12-07T11:15:54;9.07;;;2.75;;
48733;SDS011;34530;52.084;5.146;2022-12-07T11:21:08;5.82;;;2.40;;
48733;SDS011;34530;52.084;5.146;2022-12-07T11:36:39;7.47;;;2.22;;
48733;SDS011;34530;52.084;5.146;2022-12-07T11:39:30;7.35;;;2.67;;
48733;SDS011;34530;52.084;5.146;2022-12-07T11:42:01;5.03;;;2.10;;
48733;SDS011;34530;52.084;5.146;2022-12-07T11:47:48;5.00;;;2.13;;
48733;SDS011;34530;52.084;5.146;2022-12-07T11:53:02;7.25;;;2.20;;
48733;SDS011;34530;52.084;5.146;2022-12-07T11:59:09;10.40;;;1.70;;
48733;SDS011;34530;52.084;5.146;2022-12-07T12:01:42;6.70;;;2.30;;
48733;SDS011;34530;52.084;5.146;2022-12-07T12:04:21;3.67;;;1.83;;
48733;SDS011;34530;52.084;5.146;2022-12-07T12:07:06;6.03;;;2.00;;
48733;SDS011;34530;52.084;5.146;2022-12-07T12:09:34;4.60;;;2.05;;
48733;SDS011;34530;52.084;5.146;2022-12-07T12:12:31;3.58;;;1.95;;
48733;SDS011;34530;52.084;5.146;2022-12-07T12:20:35;7.68;;;3.95;;
48733;SDS011;34530;52.084;5.146;2022-12-07T12:23:17;12.88;;;7.80;;
48733;SDS011;34530;52.084;5.146;2022-12-07T12:25:47;19.65;;;10.75;;
48733;SDS011;34530;52.084;5.146;2022-12-07T12:28:19;25.42;;;13.38;;
48733;SDS011;34530;52.084;5.146;2022-12-07T12:31:03;30.63;;;17.85;;
48733;SDS011;34530;52.084;5.146;2022-12-07T12:33:35;40.55;;;21.48;;
48733;SDS011;34530;52.084;5.146;2022-12-07T12:46:59;52.45;;;31.58;;
48733;SDS011;34530;52.084;5.146;2022-12-07T12:49:42;59.10;;;33.92;;
48733;SDS011;34530;52.084;5.146;2022-12-07T12:57:34;53.83;;;33.75;;
48733;SDS011;34530;52.084;5.146;2022-12-07T13:00:02;52.53;;;33.70;;
48733;SDS011;34530;52.084;5.146;2022-12-07T13:02:53;50.75;;;32.78;;
48733;SDS011;34530;52.084;5.146;2022-12-07T13:10:22;48.35;;;30.33;;
48733;SDS011;34530;52.084;5.146;2022-12-07T13:12:57;49.35;;;30.55;;
48733;SDS011;34530;52.084;5.146;2022-12-07T13:20:53;47.30;;;29.55;;
48733;SDS011;34530;52.084;5.146;2022-12-07T13:23:22;45.08;;;28.23;;
48733;SDS011;34530;52.084;5.146;2022-12-07T13:26:14;43.45;;;26.15;;
48733;SDS011;34530;52.084;5.146;2022-12-07T13:29:15;39.55;;;24.88;;
48733;SDS011;34530;52.084;5.146;2022-12-07T13:31:43;41.53;;;25.77;;
48733;SDS011;34530;52.084;5.146;2022-12-07T13:37:01;36.70;;;23.20;;
48733;SDS011;34530;52.084;5.146;2022-12-07T13:39:35;36.72;;;23.75;;
48733;SDS011;34530;52.084;5.146;2022-12-07T13:42:16;39.92;;;22.95;;
48733;SDS011;34530;52.084;5.146;2022-12-07T13:44:48;33.97;;;20.98;;
48733;SDS011;34530;52.084;5.146;2022-12-07T13:49:49;31.70;;;19.80;;
48733;SDS011;34530;52.084;5.146;2022-12-07T13:52:21;31.25;;;18.05;;
48733;SDS011;34530;52.084;5.146;2022-12-07T13:57:31;27.63;;;16.80;;
48733;SDS011;34530;52.084;5.146;2022-12-07T14:00:00;24.17;;;14.52;;
48733;SDS011;34530;52.084;5.146;2022-12-07T14:02:29;25.20;;;16.33;;
48733;SDS011;34530;52.084;5.146;2022-12-07T14:07:48;28.30;;;14.73;;
48733;SDS011;34530;52.084;5.146;2022-12-07T14:10:23;24.40;;;13.80;;
48733;SDS011;34530;52.084;5.146;2022-12-07T14:12:52;25.55;;;13.75;;
48733;SDS011;34530;52.084;5.146;2022-12-07T14:15:22;20.45;;;12.75;;
48733;SDS011;34530;52.084;5.146;2022-12-07T14:17:52;20.35;;;12.18;;
48733;SDS011;34530;52.084;5.146;2022-12-07T14:23:00;16.92;;;10.98;;
48733;SDS011;34530;52.084;5.146;2022-12-07T14:25:44;19.33;;;10.43;;
48733;SDS011;34530;52.084;5.146;2022-12-07T14:28:24;20.42;;;10.10;;
48733;SDS011;34530;52.084;5.146;2022-12-07T14:30:50;18.30;;;10.52;;
48733;SDS011;34530;52.084;5.146;2022-12-07T14:33:16;15.75;;;9.30;;
48733;SDS011;34530;52.084;5.146;2022-12-07T14:35:42;15.43;;;9.27;;
48733;SDS011;34530;52.084;5.146;2022-12-07T14:38:08;14.48;;;8.63;;
48733;SDS011;34530;52.084;5.146;2022-12-07T14:40:34;16.02;;;8.80;;
48733;SDS011;34530;52.084;5.146;2022-12-07T14:43:00;14.98;;;8.35;;
48733;SDS011;34530;52.084;5.146;2022-12-07T14:45:40;10.98;;;7.43;;
48733;SDS011;34530;52.084;5.146;2022-12-07T14:48:15;14.55;;;8.27;;
48733;SDS011;34530;52.084;5.146;2022-12-07T14:50:45;13.15;;;7.22;;
48733;SDS011;34530;52.084;5.146;2022-12-07T14:53:16;11.00;;;6.72;;
48733;SDS011;34530;52.084;5.146;2022-12-07T14:55:44;8.75;;;6.20;;
48733;SDS011;34530;52.084;5.146;2022-12-07T14:58:16;9.27;;;6.30;;
48733;SDS011;34530;52.084;5.146;2022-12-07T15:00:43;9.43;;;6.13;;
48733;SDS011;34530;52.084;5.146;2022-12-07T15:03:09;16.88;;;6.15;;
48733;SDS011;34530;52.084;5.146;2022-12-07T15:05:35;10.45;;;6.30;;
48733;SDS011;34530;52.084;5.146;2022-12-07T15:08:01;7.40;;;5.43;;
48733;SDS011;34530;52.084;5.146;2022-12-07T15:10:28;11.32;;;5.32;;
48733;SDS011;34530;52.084;5.146;2022-12-07T15:13:01;10.40;;;6.20;;
48733;SDS011;34530;52.084;5.146;2022-12-07T15:15:47;9.20;;;5.07;;
48733;SDS011;34530;52.084;5.146;2022-12-07T15:18:13;7.22;;;4.57;;
48733;SDS011;34530;52.084;5.146;2022-12-07T15:20:39;7.25;;;4.93;;
48733;SDS011;34530;52.084;5.146;2022-12-07T15:23:05;7.32;;;4.50;;
48733;SDS011;34530;52.084;5.146;2022-12-07T15:25:30;8.63;;;4.75;;
48733;SDS011;34530;52.084;5.146;2022-12-07T15:27:56;6.32;;;4.15;;
48733;SDS011;34530;52.084;5.146;2022-12-07T15:30:21;8.23;;;4.20;;
48733;SDS011;34530;52.084;5.146;2022-12-07T15:32:50;5.88;;;3.63;;
48733;SDS011;34530;52.084;5.146;2022-12-07T15:35:17;4.97;;;3.28;;
48733;SDS011;34530;52.084;5.146;2022-12-07T15:37:42;8.13;;;4.15;;
48733;SDS011;34530;52.084;5.146;2022-12-07T15:40:08;6.53;;;3.90;;
48733;SDS011;34530;52.084;5.146;2022-12-07T15:42:35;5.65;;;3.60;;
48733;SDS011;34530;52.084;5.146;2022-12-07T15:45:01;9.63;;;4.40;;
48733;SDS011;34530;52.084;5.146;2022-12-07T15:47:33;7.05;;;3.20;;
48733;SDS011;34530;52.084;5.146;2022-12-07T15:50:04;6.90;;;3.60;;
48733;SDS011;34530;52.084;5.146;2022-12-07T15:52:31;11.20;;;3.53;;
48733;SDS011;34530;52.084;5.146;2022-12-07T15:54:57;3.78;;;2.78;;
48733;SDS011;34530;52.084;5.146;2022-12-07T15:57:24;4.53;;;3.20;;
48733;SDS011;34530;52.084;5.146;2022-12-07T15:59:50;3.40;;;2.35;;
48733;SDS011;34530;52.084;5.146;2022-12-07T16:02:16;3.63;;;2.45;;
48733;SDS011;34530;52.084;5.146;2022-12-07T16:04:41;5.63;;;3.05;;
48733;SDS011;34530;52.084;5.146;2022-12-07T16:07:07;6.40;;;3.03;;
48733;SDS011;34530;52.084;5.146;2022-12-07T16:09:33;6.28;;;2.90;;
48733;SDS011;34530;52.084;5.146;2022-12-07T16:11:58;6.95;;;3.28;;
48733;SDS011;34530;52.084;5.146;2022-12-07T16:14:24;4.85;;;3.03;;
48733;SDS011;34530;52.084;5.146;2022-12-07T16:16:50;6.38;;;3.03;;
48733;SDS011;34530;52.084;5.146;2022-12-07T16:19:15;9.60;;;2.92;;
48733;SDS011;34530;52.084;5.146;2022-12-07T16:21:41;5.82;;;3.35;;
48733;SDS011;34530;52.084;5.146;2022-12-07T16:24:07;4.45;;;3.20;;
48733;SDS011;34530;52.084;5.146;2022-12-07T16:26:35;4.63;;;2.47;;
48733;SDS011;34530;52.084;5.146;2022-12-07T16:29:00;4.60;;;2.90;;
48733;SDS011;34530;52.084;5.146;2022-12-07T16:31:26;4.30;;;2.80;;
48733;SDS011;34530;52.084;5.146;2022-12-07T16:33:54;10.27;;;3.15;;
48733;SDS011;34530;52.084;5.146;2022-12-07T16:36:21;4.18;;;2.63;;
48733;SDS011;34530;52.084;5.146;2022-12-07T16:38:49;6.63;;;2.67;;
48733;SDS011;34530;52.084;5.146;2022-12-07T16:41:15;4.30;;;2.42;;
48733;SDS011;34530;52.084;5.146;2022-12-07T16:43:41;6.93;;;2.65;;
48733;SDS011;34530;52.084;5.146;2022-12-07T16:46:07;4.90;;;2.50;;
48733;SDS011;34530;52.084;5.146;2022-12-07T16:48:36;8.05;;;3.05;;
48733;SDS011;34530;52.084;5.146;2022-12-07T16:51:06;5.90;;;2.90;;
48733;SDS011;34530;52.084;5.146;2022-12-07T16:53:37;5.18;;;3.05;;
48733;SDS011;34530;52.084;5.146;2022-12-07T16:56:04;5.32;;;2.90;;
48733;SDS011;34530;52.084;5.146;2022-12-07T16:58:34;6.22;;;3.17;;
48733;SDS011;34530;52.084;5.146;2022-12-07T17:01:08;4.55;;;2.47;;
48733;SDS011;34530;52.084;5.146;2022-12-07T17:03:44;4.95;;;2.95;;
48733;SDS011;34530;52.084;5.146;2022-12-07T17:06:14;6.10;;;3.33;;
48733;SDS011;34530;52.084;5.146;2022-12-07T17:08:42;3.92;;;2.58;;
48733;SDS011;34530;52.084;5.146;2022-12-07T17:11:11;2.97;;;2.38;;
48733;SDS011;34530;52.084;5.146;2022-12-07T17:13:37;4.35;;;2.95;;
48733;SDS011;34530;52.084;5.146;2022-12-07T17:16:21;4.00;;;2.83;;